Time;durP1;ratioP1;P1;durP2;ratioP2;P2;SDS_P1;SDS_P2;PMS_P1;PMS_P2;Temp;Humidity;BMP_temperature;BMP_pressure;BME280_temperature;BME280_humidity;BME280_pressure;Samples;Min_cycle;Max_cycle;Signal;HPM_P1;HPM_P2
2022/10/05 00:02:20;;;;;;;13.43;6.53;;;15.20;99.90;;;;;;5000798;28;20052;-63
2022/10/05 00:04:52;;;;;;;10.55;6.57;;;15.20;99.90;;;;;;5021510;28;20116;-62
2022/10/05 00:07:20;;;;;;;8.85;6.13;;;15.20;99.90;;;;;;5018074;28;20052;-63
2022/10/05 00:10:09;;;;;;;11.93;6.38;;;15.30;99.90;;;;;;5021614;28;20038;-63
2022/10/05 00:12:34;;;;;;;11.63;5.90;;;15.30;99.90;;;;;;5023337;28;20091;-63
2022/10/05 00:15:01;;;;;;;11.93;5.50;;;15.30;99.90;;;;;;5010701;28;20108;-63
2022/10/05 00:17:29;;;;;;;12.75;5.95;;;15.20;99.90;;;;;;5020915;28;20077;-62
2022/10/05 00:19:55;;;;;;;11.48;5.72;;;15.20;99.90;;;;;;5027224;28;20033;-63
2022/10/05 00:22:22;;;;;;;10.05;5.85;;;15.30;99.90;;;;;;5029185;28;20045;-63
2022/10/05 00:24:53;;;;;;;9.20;6.10;;;15.30;99.90;;;;;;5032032;28;20116;-63
2022/10/05 00:27:21;;;;;;;9.32;5.55;;;15.20;99.90;;;;;;5023612;28;20048;-63
2022/10/05 00:29:48;;;;;;;12.85;5.78;;;15.30;99.90;;;;;;5032698;28;20433;-63
2022/10/05 00:32:14;;;;;;;8.90;6.00;;;15.20;99.90;;;;;;5022872;28;20049;-63
2022/10/05 00:34:41;;;;;;;9.15;5.55;;;15.30;99.90;;;;;;5024355;28;20030;-62
2022/10/05 00:37:07;;;;;;;10.57;6.40;;;15.30;99.90;;;;;;5024508;28;20475;-62
2022/10/05 00:39:37;;;;;;;8.38;5.70;;;15.20;99.90;;;;;;5027882;28;20041;-63
2022/10/05 00:42:24;;;;;;;9.68;6.03;;;15.30;99.90;;;;;;5030063;28;20533;-63
2022/10/05 00:45:14;;;;;;;8.93;6.00;;;15.30;99.90;;;;;;5014822;28;20038;-63
2022/10/05 00:48:04;;;;;;;13.93;6.50;;;15.30;99.90;;;;;;5030146;28;20042;-63
2022/10/05 00:50:48;;;;;;;11.70;6.35;;;15.20;99.90;;;;;;5018746;28;20447;-63
2022/10/05 00:53:42;;;;;;;12.07;7.25;;;15.30;99.90;;;;;;5027127;28;20114;-63
2022/10/05 00:56:17;;;;;;;9.07;6.55;;;15.30;99.90;;;;;;5004015;28;20045;-62
2022/10/05 00:59:20;;;;;;;13.05;7.22;;;15.30;99.90;;;;;;5020192;28;20064;-63
2022/10/05 01:02:01;;;;;;;11.63;7.07;;;15.20;99.90;;;;;;5014234;28;20091;-62
2022/10/05 01:04:40;;;;;;;12.00;7.38;;;15.20;99.90;;;;;;5029555;28;20041;-63
2022/10/05 01:07:20;;;;;;;11.20;7.07;;;15.20;99.90;;;;;;5030321;28;20042;-62
2022/10/05 01:09:54;;;;;;;11.48;6.90;;;15.20;99.90;;;;;;5007500;28;20033;-62
2022/10/05 01:12:41;;;;;;;12.63;7.35;;;15.20;99.90;;;;;;5025616;28;20071;-63
2022/10/05 01:15:11;;;;;;;10.82;7.43;;;15.20;99.90;;;;;;5026496;28;20042;-62
2022/10/05 01:17:53;;;;;;;12.68;7.28;;;15.20;99.90;;;;;;5027454;28;20053;-63
2022/10/05 01:20:38;;;;;;;;;;;15.20;99.90;;;;;;5032524;28;20041;-62
2022/10/05 01:23:24;;;;;;;15.80;8.38;;;15.20;99.90;;;;;;5030696;28;19917;-62
2022/10/05 01:26:14;;;;;;;13.00;8.15;;;15.20;99.90;;;;;;5028884;28;20137;-62
2022/10/05 01:28:42;;;;;;;12.40;8.15;;;15.20;99.90;;;;;;5021141;28;20044;-62
2022/10/05 01:31:20;;;;;;;13.98;7.53;;;15.20;99.90;;;;;;5032799;28;20049;-63
2022/10/05 01:34:04;;;;;;;13.63;8.10;;;15.20;99.90;;;;;;5042769;28;20045;-63
2022/10/05 01:36:33;;;;;;;10.73;7.85;;;15.10;99.90;;;;;;5017786;28;20046;-62
2022/10/05 01:39:11;;;;;;;12.82;7.72;;;15.20;99.90;;;;;;5027237;28;20549;-62
2022/10/05 01:42:03;;;;;;;12.63;7.95;;;15.20;99.90;;;;;;5023988;28;20068;-63
2022/10/05 01:44:53;;;;;;;14.55;7.75;;;15.20;99.90;;;;;;5022687;28;20426;-62
2022/10/05 01:47:48;;;;;;;14.48;8.18;;;15.20;99.90;;;;;;5024427;28;20041;-63
2022/10/05 01:50:23;;;;;;;13.25;8.07;;;15.20;99.90;;;;;;5014960;28;20077;-63
2022/10/05 01:53:03;;;;;;;13.98;8.35;;;15.10;99.90;;;;;;5026579;28;20103;-62
2022/10/05 01:55:43;;;;;;;13.95;8.18;;;15.10;99.90;;;;;;5040816;28;20048;-63
2022/10/05 01:58:28;;;;;;;12.25;8.13;;;15.10;99.90;;;;;;5025092;28;20046;-63
2022/10/05 02:01:10;;;;;;;12.68;8.15;;;15.10;99.90;;;;;;5023947;28;20088;-63
2022/10/05 02:03:37;;;;;;;;;;;15.10;99.90;;;;;;5029148;28;20038;-63
2022/10/05 02:06:26;;;;;;;14.45;8.00;;;15.10;99.90;;;;;;5009300;28;19924;-63
2022/10/05 02:09:13;;;;;;;13.88;7.82;;;15.10;99.90;;;;;;5015362;28;20057;-63
2022/10/05 02:11:44;;;;;;;11.13;7.38;;;15.10;99.90;;;;;;5025252;28;20045;-62
2022/10/05 02:14:18;;;;;;;10.52;7.47;;;15.10;99.90;;;;;;5022206;28;20378;-63
2022/10/05 02:16:47;;;;;;;11.48;7.47;;;15.00;99.90;;;;;;5024441;28;20042;-62
2022/10/05 02:19:41;;;;;;;12.45;6.85;;;15.10;99.90;;;;;;5022571;28;20045;-62
2022/10/05 02:22:16;;;;;;;13.60;7.68;;;15.00;99.90;;;;;;5012691;28;20049;-62
2022/10/05 02:25:06;;;;;;;11.77;7.72;;;15.00;99.90;;;;;;5025312;28;20049;-63
2022/10/05 02:27:38;;;;;;;12.13;7.35;;;15.00;99.90;;;;;;5028756;28;20033;-63
2022/10/05 02:30:06;;;;;;;10.85;6.95;;;15.00;99.90;;;;;;5028147;28;20044;-63
2022/10/05 02:32:48;;;;;;;11.00;7.15;;;15.00;99.90;;;;;;5022252;28;20064;-63
2022/10/05 02:35:17;;;;;;;9.07;6.93;;;15.00;99.90;;;;;;5015487;28;20246;-63
2022/10/05 02:37:56;;;;;;;11.65;6.95;;;15.00;99.90;;;;;;5004478;28;20049;-63
2022/10/05 02:40:50;;;;;;;12.95;6.97;;;15.00;99.90;;;;;;5019733;28;20518;-62
2022/10/05 02:43:26;;;;;;;10.52;6.85;;;15.00;99.90;;;;;;5001661;28;20081;-62
2022/10/05 02:46:10;;;;;;;9.27;6.63;;;15.00;99.90;;;;;;5000566;28;20483;-62
2022/10/05 02:49:03;;;;;;;11.45;7.05;;;15.00;99.90;;;;;;5018884;28;20048;-63
2022/10/05 02:51:53;;;;;;;10.13;6.70;;;15.00;99.90;;;;;;5023435;28;20049;-62
2022/10/05 02:54:37;;;;;;;8.95;6.43;;;15.00;99.90;;;;;;5002000;28;20089;-62
2022/10/05 02:57:32;;;;;;;9.85;6.70;;;15.00;99.90;;;;;;5018282;28;20520;-63
2022/10/05 03:00:18;;;;;;;9.88;6.50;;;15.00;99.90;;;;;;5022553;28;20053;-63
2022/10/05 03:02:47;;;;;;;10.60;6.18;;;15.00;99.90;;;;;;5027037;28;20034;-62
2022/10/05 03:05:39;;;;;;;12.07;6.55;;;15.00;99.90;;;;;;5028686;28;20041;-63
2022/10/05 03:08:25;;;;;;;12.80;7.13;;;15.00;99.90;;;;;;5004225;28;20057;-63
2022/10/05 03:10:56;;;;;;;10.18;6.47;;;15.00;99.90;;;;;;5017070;28;20382;-63
2022/10/05 03:13:33;;;;;;;10.85;7.05;;;15.00;99.90;;;;;;5024109;28;20095;-63
2022/10/05 03:16:09;;;;;;;10.43;6.75;;;14.90;99.90;;;;;;5024909;28;20045;-63
2022/10/05 03:18:35;;;;;;;10.07;6.47;;;14.90;99.90;;;;;;5020190;28;20516;-62
2022/10/05 03:21:22;;;;;;;11.80;6.97;;;14.90;99.90;;;;;;4999238;28;20261;-63
2022/10/05 03:24:05;;;;;;;12.85;7.18;;;14.90;99.90;;;;;;5025559;28;20041;-62
2022/10/05 03:26:40;;;;;;;13.50;7.15;;;14.90;99.90;;;;;;5021777;28;20059;-62
2022/10/05 03:29:24;;;;;;;11.40;7.25;;;14.90;99.90;;;;;;5017095;28;20041;-62
2022/10/05 03:32:04;;;;;;;11.55;6.93;;;14.90;99.90;;;;;;5021422;28;20175;-63
2022/10/05 03:34:55;;;;;;;10.40;7.30;;;14.80;99.90;;;;;;5010066;28;20486;-62
2022/10/05 03:37:52;;;;;;;10.70;7.45;;;14.90;99.90;;;;;;5029663;28;20065;-62
2022/10/05 03:40:55;;;;;;;11.48;6.68;;;14.80;99.90;;;;;;5023882;28;20041;-63
2022/10/05 03:43:39;;;;;;;10.52;7.18;;;14.80;99.90;;;;;;5015921;28;20073;-62
2022/10/05 03:46:19;;;;;;;10.90;7.95;;;14.80;99.90;;;;;;5016374;28;20037;-63
2022/10/05 03:49:21;;;;;;;12.43;7.13;;;14.80;99.90;;;;;;5023844;28;20037;-62
2022/10/05 03:52:22;;;;;;;12.50;7.55;;;14.80;99.90;;;;;;5028416;28;20038;-62
2022/10/05 03:55:01;;;;;;;12.63;7.85;;;14.80;99.90;;;;;;5022634;28;20087;-63
2022/10/05 03:57:32;;;;;;;11.45;7.65;;;14.80;99.90;;;;;;5006351;28;20037;-62
2022/10/05 04:00:24;;;;;;;12.82;7.88;;;14.80;99.90;;;;;;5022972;28;20483;-63
2022/10/05 04:02:57;;;;;;;;;;;14.80;99.90;;;;;;4996638;28;20034;-62
2022/10/05 04:05:43;;;;;;;11.82;8.05;;;14.70;99.90;;;;;;5023903;28;19940;-62
2022/10/05 04:08:36;;;;;;;12.05;7.85;;;14.80;99.90;;;;;;5019984;28;20037;-62
2022/10/05 04:11:08;;;;;;;12.32;8.13;;;14.80;99.90;;;;;;5020038;28;20054;-62
2022/10/05 04:14:09;;;;;;;13.38;8.35;;;14.80;99.90;;;;;;5020970;28;20108;-63
2022/10/05 04:16:42;;;;;;;12.90;8.43;;;14.80;99.90;;;;;;4993302;28;20050;-63
2022/10/05 04:19:18;;;;;;;13.10;7.88;;;14.80;99.90;;;;;;5024488;28;20037;-62
2022/10/05 04:22:05;;;;;;;10.30;7.03;;;14.80;99.90;;;;;;5020757;28;20096;-62
2022/10/05 04:24:36;;;;;;;15.60;7.88;;;14.80;99.90;;;;;;5027276;28;20430;-63
2022/10/05 04:27:11;;;;;;;12.27;7.88;;;14.70;99.90;;;;;;5004436;28;20064;-62
2022/10/05 04:29:48;;;;;;;12.32;7.78;;;14.70;99.90;;;;;;5008075;28;20508;-62
2022/10/05 04:32:35;;;;;;;16.08;8.07;;;14.70;99.90;;;;;;5021214;28;20494;-63
2022/10/05 04:35:12;;;;;;;12.30;7.68;;;14.70;99.90;;;;;;5012349;28;20441;-63
2022/10/05 04:37:38;;;;;;;12.63;8.00;;;14.70;99.90;;;;;;5019976;28;20041;-62
2022/10/05 04:40:50;;;;;;;11.18;7.57;;;14.70;99.90;;;;;;5029124;28;20548;-63
2022/10/05 04:43:45;;;;;;;11.23;7.38;;;14.70;99.90;;;;;;4976381;28;20048;-62
2022/10/05 04:46:42;;;;;;;11.65;7.68;;;14.70;99.90;;;;;;5004747;28;20042;-64
2022/10/05 04:49:34;;;;;;;17.23;8.73;;;14.60;99.90;;;;;;5017795;28;20034;-64
2022/10/05 04:52:30;;;;;;;13.05;7.88;;;14.60;99.90;;;;;;5020868;28;20033;-64
2022/10/05 04:55:04;;;;;;;13.48;8.63;;;14.60;99.90;;;;;;5020945;28;20040;-62
2022/10/05 04:57:55;;;;;;;12.18;8.52;;;14.60;99.90;;;;;;5014720;28;20073;-63
2022/10/05 05:00:43;;;;;;;10.55;7.57;;;14.60;99.90;;;;;;5021110;28;20045;-62
2022/10/05 05:03:49;;;;;;;14.23;7.82;;;14.60;99.90;;;;;;5027932;28;20540;-62
2022/10/05 05:06:21;;;;;;;13.45;8.18;;;14.60;99.90;;;;;;5033557;28;20067;-62
2022/10/05 05:08:56;;;;;;;12.07;8.50;;;14.60;99.90;;;;;;5029981;28;20375;-64
2022/10/05 05:11:48;;;;;;;11.80;8.43;;;14.60;99.90;;;;;;5008559;28;20402;-62
2022/10/05 05:14:14;;;;;;;15.85;8.63;;;14.60;99.90;;;;;;5028926;28;20048;-62
2022/10/05 05:16:42;;;;;;;13.60;8.80;;;14.60;99.90;;;;;;5015119;28;20041;-62
2022/10/05 05:19:36;;;;;;;14.23;8.52;;;14.60;99.90;;;;;;5024326;28;20049;-62
2022/10/05 05:22:05;;;;;;;16.63;9.20;;;14.60;99.90;;;;;;5021526;28;20042;-62
2022/10/05 05:25:01;;;;;;;13.25;9.13;;;14.60;99.90;;;;;;5026459;28;20124;-64
2022/10/05 05:27:38;;;;;;;17.02;8.88;;;14.60;99.90;;;;;;5026833;28;20116;-62
2022/10/05 05:30:20;;;;;;;14.05;8.65;;;14.60;99.90;;;;;;5029964;28;20033;-63
2022/10/05 05:32:57;;;;;;;13.35;8.52;;;14.60;99.90;;;;;;5028267;28;20512;-62
2022/10/05 05:35:37;;;;;;;14.85;8.88;;;14.60;99.90;;;;;;5028701;28;20084;-62
2022/10/05 05:38:37;;;;;;;14.38;9.05;;;14.60;99.90;;;;;;5027940;28;20138;-62
2022/10/05 05:41:09;;;;;;;12.85;8.93;;;14.50;99.90;;;;;;5029879;28;20196;-62
2022/10/05 05:43:42;;;;;;;13.98;8.50;;;14.50;99.90;;;;;;5011604;28;20037;-62
2022/10/05 05:46:37;;;;;;;12.10;8.57;;;14.50;99.90;;;;;;5026017;28;20048;-62
2022/10/05 05:49:16;;;;;;;14.32;8.98;;;14.50;99.90;;;;;;5008833;28;20045;-62
2022/10/05 05:51:48;;;;;;;13.57;8.68;;;14.50;99.90;;;;;;5027253;28;20033;-62
2022/10/05 05:54:19;;;;;;;16.17;9.52;;;14.50;99.90;;;;;;5026113;28;20045;-65
2022/10/05 05:57:12;;;;;;;14.50;8.32;;;14.50;99.90;;;;;;5022856;28;20402;-62
2022/10/05 06:00:19;;;;;;;13.30;8.75;;;14.50;99.90;;;;;;5025331;28;20034;-64
2022/10/05 06:03:09;;;;;;;15.82;9.75;;;14.60;99.90;;;;;;5028490;28;20044;-62
2022/10/05 06:05:43;;;;;;;14.75;9.57;;;14.60;99.90;;;;;;5030187;28;20045;-62
2022/10/05 06:08:19;;;;;;;17.67;9.73;;;14.60;99.90;;;;;;5029846;28;20106;-62
2022/10/05 06:11:11;;;;;;;12.57;9.13;;;14.50;99.90;;;;;;5023727;28;20038;-62
2022/10/05 06:13:40;;;;;;;17.07;9.77;;;14.60;99.90;;;;;;5019678;28;20041;-62
2022/10/05 06:16:32;;;;;;;12.23;8.82;;;14.60;99.90;;;;;;5003826;28;20303;-62
2022/10/05 06:19:09;;;;;;;13.75;9.52;;;14.60;99.90;;;;;;5009190;28;20047;-62
2022/10/05 06:21:58;;;;;;;13.18;9.10;;;14.60;99.90;;;;;;5022597;28;20026;-62
2022/10/05 06:24:39;;;;;;;12.80;9.15;;;14.60;99.90;;;;;;5028295;28;20095;-62
2022/10/05 06:27:16;;;;;;;14.52;9.38;;;14.60;99.90;;;;;;5019568;28;20034;-62
2022/10/05 06:30:10;;;;;;;12.77;8.88;;;14.60;99.90;;;;;;5030318;28;20398;-62
2022/10/05 06:32:38;;;;;;;13.77;9.57;;;14.60;99.90;;;;;;4995190;28;20046;-62
2022/10/05 06:35:04;;;;;;;11.43;8.80;;;14.60;99.90;;;;;;5029990;28;20037;-62
2022/10/05 06:37:59;;;;;;;12.68;9.23;;;14.60;99.90;;;;;;5017108;28;20037;-62
2022/10/05 06:41:08;;;;;;;11.40;8.23;;;14.70;99.90;;;;;;5018192;28;20038;-63
2022/10/05 06:43:57;;;;;;;14.60;9.18;;;14.60;99.90;;;;;;5006270;28;20041;-62
2022/10/05 06:46:38;;;;;;;13.68;9.48;;;14.70;99.90;;;;;;5024092;28;20464;-62
2022/10/05 06:49:18;;;;;;;10.77;8.02;;;14.70;99.90;;;;;;5027229;28;20116;-62
2022/10/05 06:52:02;;;;;;;12.77;7.95;;;14.70;99.90;;;;;;5026610;28;20045;-62
2022/10/05 06:54:40;;;;;;;10.40;8.05;;;14.70;99.90;;;;;;5028144;28;20084;-62
2022/10/05 06:57:14;;;;;;;11.60;7.80;;;14.70;99.90;;;;;;5008656;28;20556;-62
2022/10/05 07:00:22;;;;;;;11.63;8.43;;;14.70;99.90;;;;;;5026909;28;20065;-62
2022/10/05 07:03:02;;;;;;;13.70;8.05;;;14.70;99.90;;;;;;5022983;28;20541;-64
2022/10/05 07:05:36;;;;;;;13.27;8.13;;;14.70;99.90;;;;;;5009070;28;20073;-64
2022/10/05 07:08:17;;;;;;;10.98;7.85;;;14.70;99.90;;;;;;5023744;28;20038;-62
2022/10/05 07:11:03;;;;;;;12.35;8.20;;;14.70;99.90;;;;;;5007561;28;20037;-62
2022/10/05 07:13:39;;;;;;;12.07;8.32;;;14.80;99.90;;;;;;5010212;28;20048;-62
2022/10/05 07:16:22;;;;;;;11.07;8.07;;;14.70;99.90;;;;;;5024091;28;20139;-62
2022/10/05 07:19:12;;;;;;;12.75;8.68;;;14.80;99.90;;;;;;5026487;28;20042;-62
2022/10/05 07:22:06;;;;;;;13.23;7.97;;;14.80;99.90;;;;;;5026200;28;20068;-63
2022/10/05 07:24:39;;;;;;;11.40;7.80;;;14.80;99.90;;;;;;5025140;28;20572;-63
2022/10/05 07:27:17;;;;;;;10.85;7.97;;;14.80;99.90;;;;;;5023795;28;20559;-62
2022/10/05 07:29:53;;;;;;;11.43;7.93;;;14.90;99.90;;;;;;5024746;28;20446;-62
2022/10/05 07:32:24;;;;;;;11.85;7.47;;;14.90;99.90;;;;;;5025567;28;20532;-62
2022/10/05 07:35:01;;;;;;;12.67;8.40;;;14.90;99.90;;;;;;5025828;28;20041;-62
2022/10/05 07:37:53;;;;;;;11.50;7.55;;;15.00;99.90;;;;;;5025488;28;20037;-63
2022/10/05 07:40:43;;;;;;;9.30;7.05;;;15.00;99.90;;;;;;5020876;28;20056;-62
2022/10/05 07:43:26;;;;;;;11.65;7.90;;;15.00;99.90;;;;;;5018659;28;20442;-62
2022/10/05 07:46:07;;;;;;;13.25;8.75;;;15.10;99.90;;;;;;5026513;28;20045;-62
2022/10/05 07:49:04;;;;;;;10.80;8.18;;;15.00;99.90;;;;;;5022783;28;20425;-63
2022/10/05 07:51:52;;;;;;;12.85;8.10;;;15.10;99.90;;;;;;5018962;28;20550;-62
2022/10/05 07:54:24;;;;;;;12.77;8.23;;;15.10;99.90;;;;;;4998786;28;20059;-62
2022/10/05 07:57:22;;;;;;;9.55;7.45;;;15.10;99.90;;;;;;5005549;28;20091;-62
2022/10/05 08:00:05;;;;;;;11.82;8.25;;;15.10;99.90;;;;;;5001927;28;20399;-64
2022/10/05 08:02:43;;;;;;;9.93;7.90;;;15.10;99.90;;;;;;5027227;28;20113;-62
2022/10/05 08:05:12;;;;;;;11.90;7.60;;;15.10;99.90;;;;;;5009981;28;20045;-62
2022/10/05 08:07:39;;;;;;;10.25;7.35;;;15.10;99.90;;;;;;5028126;28;20042;-62
2022/10/05 08:10:38;;;;;;;10.60;7.35;;;15.10;99.90;;;;;;5025427;28;20486;-62
2022/10/05 08:13:10;;;;;;;10.07;7.35;;;15.20;99.90;;;;;;5027099;28;20402;-62
2022/10/05 08:15:46;;;;;;;11.13;7.00;;;15.20;99.90;;;;;;5021876;28;20049;-64
2022/10/05 08:18:50;;;;;;;12.68;7.75;;;15.30;99.90;;;;;;5025950;28;20137;-64
2022/10/05 08:21:21;;;;;;;10.88;7.55;;;15.20;99.90;;;;;;4968913;28;20042;-62
2022/10/05 08:24:01;;;;;;;10.73;7.05;;;15.30;99.90;;;;;;5018787;28;20039;-62
2022/10/05 08:26:59;;;;;;;13.07;7.85;;;15.30;99.90;;;;;;5025203;28;20099;-62
2022/10/05 08:29:37;;;;;;;10.85;7.13;;;15.30;99.90;;;;;;5005973;28;20578;-62
2022/10/05 08:32:11;;;;;;;8.68;6.90;;;15.40;99.90;;;;;;5029691;28;20560;-62
2022/10/05 08:34:52;;;;;;;11.73;7.05;;;15.40;99.90;;;;;;5008513;28;20437;-62
2022/10/05 08:37:21;;;;;;;9.13;6.85;;;15.50;99.90;;;;;;5020626;28;20045;-64
2022/10/05 08:40:17;;;;;;;11.40;6.93;;;15.50;99.90;;;;;;4998609;28;20122;-62
2022/10/05 08:42:49;;;;;;;9.68;7.00;;;15.50;99.90;;;;;;4987411;28;20054;-62
2022/10/05 08:45:25;;;;;;;11.75;6.50;;;15.50;99.90;;;;;;5024699;28;20141;-63
2022/10/05 08:48:13;;;;;;;10.80;6.38;;;15.50;99.90;;;;;;5033450;28;20061;-62
2022/10/05 08:50:57;;;;;;;9.52;5.63;;;15.60;99.90;;;;;;5029933;28;20041;-62
2022/10/05 08:53:54;;;;;;;10.30;5.88;;;15.60;99.90;;;;;;4995695;28;20541;-63
2022/10/05 08:56:41;;;;;;;11.60;5.65;;;15.60;99.90;;;;;;5021388;28;20064;-62
2022/10/05 08:59:25;;;;;;;7.22;5.22;;;15.70;99.90;;;;;;5010151;28;20405;-63
2022/10/05 09:02:18;;;;;;;8.40;5.30;;;15.70;99.90;;;;;;5025309;28;20037;-62
2022/10/05 09:05:14;;;;;;;8.05;5.15;;;15.70;99.90;;;;;;5020748;28;20041;-62
2022/10/05 09:07:58;;;;;;;7.63;5.07;;;15.70;99.90;;;;;;4985180;28;20049;-62
2022/10/05 09:10:27;;;;;;;8.82;4.65;;;15.80;99.90;;;;;;5023863;28;20092;-63
2022/10/05 09:13:15;;;;;;;7.00;4.93;;;15.80;99.90;;;;;;5017683;28;20136;-63
2022/10/05 09:15:55;;;;;;;9.02;4.90;;;15.80;99.90;;;;;;5010833;28;20045;-61
2022/10/05 09:18:51;;;;;;;5.97;4.57;;;15.90;99.90;;;;;;5026651;28;20061;-64
2022/10/05 09:21:35;;;;;;;6.60;4.57;;;15.90;99.90;;;;;;5008693;28;20061;-64
2022/10/05 09:24:15;;;;;;;5.57;4.70;;;15.90;99.90;;;;;;5021416;28;20069;-61
2022/10/05 09:26:48;;;;;;;8.52;5.07;;;16.00;99.90;;;;;;5000769;28;20049;-60
2022/10/05 09:29:45;;;;;;;6.80;4.38;;;16.00;99.90;;;;;;5014287;28;20049;-62
2022/10/05 09:32:19;;;;;;;6.88;4.93;;;16.00;99.90;;;;;;5022416;28;20041;-62
2022/10/05 09:35:17;;;;;;;6.88;5.00;;;16.00;99.90;;;;;;5024424;28;20037;-61
2022/10/05 09:38:11;;;;;;;8.18;4.70;;;16.00;99.90;;;;;;5013515;28;20482;-61
2022/10/05 09:41:02;;;;;;;6.78;4.53;;;16.00;99.90;;;;;;5020162;28;20026;-61
2022/10/05 09:44:05;;;;;;;8.43;4.43;;;16.00;99.90;;;;;;5017741;28;20045;-62
2022/10/05 09:47:00;;;;;;;6.97;4.53;;;16.00;99.90;;;;;;5002169;28;20046;-61
2022/10/05 09:49:56;;;;;;;6.50;4.45;;;16.00;99.90;;;;;;4992952;28;20145;-66
2022/10/05 09:52:41;;;;;;;5.93;4.50;;;16.00;99.90;;;;;;4998162;28;20390;-65
2022/10/05 09:55:29;;;;;;;8.35;5.10;;;16.00;99.90;;;;;;5022102;28;20080;-62
2022/10/05 09:58:14;;;;;;;10.05;4.97;;;16.00;99.90;;;;;;5003269;28;20104;-61
2022/10/05 10:00:39;;;;;;;9.27;5.20;;;16.00;99.90;;;;;;5029813;28;20052;-61
2022/10/05 10:03:41;;;;;;;8.07;5.07;;;16.00;99.90;;;;;;5022716;28;20129;-62
2022/10/05 10:07:01;;;;;;;7.60;4.90;;;16.00;99.90;;;;;;5022778;28;20121;-61
2022/10/05 10:09:32;;;;;;;27.75;7.45;;;16.00;99.90;;;;;;4976025;28;20525;-63
2022/10/05 10:12:17;;;;;;;18.83;6.55;;;16.00;99.90;;;;;;5007330;28;20053;-61
2022/10/05 10:15:01;;;;;;;9.32;5.00;;;16.10;99.90;;;;;;5013548;28;20045;-61
2022/10/05 10:17:46;;;;;;;8.85;5.32;;;16.10;99.90;;;;;;5007358;28;20041;-61
2022/10/05 10:20:37;;;;;;;6.65;4.68;;;16.10;99.90;;;;;;5017623;28;20037;-62
2022/10/05 10:23:32;;;;;;;8.25;4.63;;;16.10;99.90;;;;;;5012003;28;20064;-61
2022/10/05 10:26:12;;;;;;;7.47;4.82;;;16.10;99.90;;;;;;4973502;28;20054;-61
2022/10/05 10:28:54;;;;;;;5.72;4.93;;;16.10;99.90;;;;;;5020215;28;20399;-61
2022/10/05 10:31:58;;;;;;;5.95;4.60;;;16.10;99.90;;;;;;5017277;28;20038;-61
2022/10/05 10:34:42;;;;;;;6.10;4.30;;;16.20;99.90;;;;;;5030491;28;20037;-61
2022/10/05 10:37:15;;;;;;;6.07;4.40;;;16.20;99.90;;;;;;5027515;28;20038;-61
2022/10/05 10:40:11;;;;;;;7.28;4.28;;;16.20;99.90;;;;;;5011643;28;20045;-61
2022/10/05 10:43:07;;;;;;;6.35;4.00;;;16.30;99.90;;;;;;5014955;28;20046;-61
2022/10/05 10:48:07;;;;;;;6.30;4.20;;;16.30;99.90;;;;;;5068776;23;20040;-77
2022/10/05 10:51:00;;;;;;;6.45;4.10;;;16.40;99.90;;;;;;5041393;28;20553;-77
2022/10/05 10:54:04;;;;;;;6.22;4.45;;;16.40;99.90;;;;;;5025082;28;20632;-78
2022/10/05 10:57:01;;;;;;;6.82;4.57;;;16.50;99.90;;;;;;5042611;28;20088;-77
2022/10/05 10:59:56;;;;;;;6.18;4.35;;;16.50;99.90;;;;;;5018377;28;20053;-77
2022/10/05 11:02:43;;;;;;;6.78;4.07;;;16.60;99.90;;;;;;5025757;28;20095;-77
2022/10/05 11:05:33;;;;;;;5.65;4.05;;;16.60;99.90;;;;;;5010044;28;20402;-77
2022/10/05 11:08:12;;;;;;;5.88;4.35;;;16.70;99.90;;;;;;5014523;28;20041;-77
2022/10/05 11:10:59;;;;;;;6.75;3.42;;;16.70;99.90;;;;;;5012509;28;20116;-77
2022/10/05 11:13:34;;;;;;;4.25;3.08;;;16.80;99.90;;;;;;5017919;28;20050;-78
2022/10/05 11:16:29;;;;;;;5.82;3.75;;;16.90;99.90;;;;;;5047185;28;20041;-77
2022/10/05 11:19:11;;;;;;;6.72;3.47;;;16.80;99.90;;;;;;5018274;28;20119;-77
2022/10/05 11:21:48;;;;;;;6.53;3.00;;;16.80;99.90;;;;;;5019497;28;20088;-77
2022/10/05 11:24:37;;;;;;;6.35;3.85;;;16.90;99.90;;;;;;5009760;28;20507;-77
2022/10/05 11:27:33;;;;;;;8.88;3.70;;;16.90;99.90;;;;;;5021567;28;20037;-78
2022/10/05 11:30:29;;;;;;;7.88;3.78;;;16.90;99.90;;;;;;5027861;28;20048;-78
2022/10/05 11:33:10;;;;;;;6.43;4.18;;;16.90;99.90;;;;;;5011678;28;20063;-80
2022/10/05 11:35:58;;;;;;;5.78;3.70;;;16.90;99.90;;;;;;5014901;28;20034;-77
2022/10/05 11:38:27;;;;;;;6.53;4.30;;;16.90;99.90;;;;;;5013060;28;20041;-80
2022/10/05 11:41:04;;;;;;;5.90;3.55;;;16.80;99.90;;;;;;5012718;28;20037;-77
2022/10/05 11:43:38;;;;;;;5.35;3.80;;;16.90;99.90;;;;;;5026137;28;20037;-76
2022/10/05 11:46:35;;;;;;;6.10;3.78;;;16.90;99.90;;;;;;5021359;28;20049;-78
2022/10/05 11:49:19;;;;;;;6.03;3.97;;;16.90;99.90;;;;;;5013333;28;20049;-77
2022/10/05 11:52:05;;;;;;;8.10;3.90;;;16.80;99.90;;;;;;5011685;28;20053;-77
2022/10/05 11:54:51;;;;;;;6.05;3.45;;;16.90;99.90;;;;;;5013314;28;20049;-77
2022/10/05 11:57:54;;;;;;;5.80;3.70;;;16.80;99.90;;;;;;5027801;28;20041;-77
2022/10/05 12:00:23;;;;;;;6.10;3.50;;;16.80;99.90;;;;;;5009577;28;20403;-78
2022/10/05 12:03:26;;;;;;;7.72;3.58;;;16.70;99.90;;;;;;5010476;28;20049;-80
2022/10/05 12:06:02;;;;;;;7.50;3.65;;;16.70;99.90;;;;;;5018686;28;20037;-79
2022/10/05 12:08:37;;;;;;;7.22;3.90;;;16.70;99.90;;;;;;5010243;28;20125;-83
2022/10/05 12:11:43;;;;;;;7.25;4.18;;;16.70;99.90;;;;;;5001148;28;20041;-78
2022/10/05 12:14:46;;;;;;;5.53;3.90;;;16.60;99.90;;;;;;5014801;28;20121;-78
2022/10/05 12:17:30;;;;;;;7.78;3.78;;;16.70;99.90;;;;;;5023690;28;20075;-78
2022/10/05 12:20:15;;;;;;;7.63;4.07;;;16.60;99.90;;;;;;5034311;28;20495;-81
2022/10/05 12:23:10;;;;;;;6.57;4.13;;;16.60;99.90;;;;;;5026044;28;20037;-78
2022/10/05 12:25:53;;;;;;;5.65;4.05;;;16.60;99.90;;;;;;5016907;28;20049;-78
2022/10/05 12:28:26;;;;;;;8.93;4.30;;;16.60;99.90;;;;;;5022137;28;20379;-79
2022/10/05 12:31:13;;;;;;;10.00;3.83;;;16.60;99.90;;;;;;5017340;28;20044;-78
2022/10/05 12:34:02;;;;;;;7.53;4.45;;;16.70;99.90;;;;;;5013035;28;20074;-79
2022/10/05 12:36:48;;;;;;;6.57;3.97;;;16.70;99.90;;;;;;5018332;28;20033;-78
2022/10/05 12:39:41;;;;;;;5.03;3.63;;;16.70;99.90;;;;;;4986369;28;20135;-78
2022/10/05 12:42:37;;;;;;;6.25;3.75;;;16.70;99.90;;;;;;5012329;28;20048;-81
2022/10/05 12:45:05;;;;;;;7.05;3.83;;;16.70;99.90;;;;;;5016842;28;20635;-78
2022/10/05 12:48:08;;;;;;;7.25;3.97;;;16.80;99.90;;;;;;5017060;28;20034;-79
2022/10/05 12:50:41;;;;;;;7.97;3.88;;;16.90;99.90;;;;;;5020938;28;20409;-79
2022/10/05 12:53:32;;;;;;;10.00;4.03;;;16.90;99.90;;;;;;5015496;28;20557;-78
2022/10/05 12:56:14;;;;;;;8.52;4.00;;;17.00;99.90;;;;;;5013182;28;20092;-78
2022/10/05 12:59:27;;;;;;;6.88;3.50;;;16.90;99.90;;;;;;5016428;28;20483;-78
2022/10/05 13:02:09;;;;;;;10.40;3.30;;;17.00;99.90;;;;;;5020357;28;20047;-78
2022/10/05 13:04:57;;;;;;;6.35;3.75;;;17.00;99.90;;;;;;5018258;28;20064;-78
2022/10/05 13:07:51;;;;;;;8.40;3.58;;;17.00;99.90;;;;;;5016141;28;20125;-78
2022/10/05 13:10:32;;;;;;;6.22;3.30;;;17.00;99.90;;;;;;5035125;28;20045;-79
2022/10/05 13:13:10;;;;;;;8.55;3.55;;;17.00;99.90;;;;;;5041109;28;20049;-79
2022/10/05 13:16:09;;;;;;;6.10;3.58;;;17.10;99.90;;;;;;5016224;28;20041;-79
2022/10/05 13:19:11;;;;;;;5.72;3.40;;;17.10;99.90;;;;;;4982537;28;20037;-78
2022/10/05 13:21:37;;;;;;;7.93;3.60;;;17.10;99.90;;;;;;5029808;28;20041;-77
2022/10/05 13:24:41;;;;;;;5.43;3.10;;;17.10;99.90;;;;;;5020560;28;20167;-78
2022/10/05 13:27:15;;;;;;;5.53;3.35;;;17.20;99.90;;;;;;4957173;28;20121;-81
2022/10/05 13:29:46;;;;;;;6.57;3.65;;;17.30;99.90;;;;;;4950586;28;20513;-79
2022/10/05 13:32:21;;;;;;;5.80;3.40;;;17.30;99.90;;;;;;4990481;28;20054;-78
2022/10/05 13:35:05;;;;;;;5.90;3.47;;;17.40;99.90;;;;;;5013729;28;20061;-81
2022/10/05 13:37:47;;;;;;;5.28;3.20;;;17.40;99.90;;;;;;5012509;28;20033;-80
2022/10/05 13:40:34;;;;;;;5.20;3.40;;;17.40;99.90;;;;;;5015634;28;20091;-79
2022/10/05 13:43:12;;;;;;;4.80;3.10;;;17.50;99.90;;;;;;5015795;28;20419;-78
2022/10/05 13:45:40;;;;;;;5.95;3.40;;;17.50;99.90;;;;;;5009718;28;20415;-77
2022/10/05 13:48:21;;;;;;;4.50;2.92;;;17.50;99.90;;;;;;5018764;28;20041;-79
2022/10/05 13:51:14;;;;;;;7.07;3.33;;;17.60;99.90;;;;;;5015609;28;20399;-78
2022/10/05 13:53:40;;;;;;;6.65;3.15;;;17.60;99.90;;;;;;5032122;28;20124;-78
2022/10/05 13:56:19;;;;;;;4.40;3.10;;;17.70;99.90;;;;;;5030550;28;20456;-77
2022/10/05 13:59:10;;;;;;;5.68;3.30;;;17.70;99.90;;;;;;5018718;28;20037;-78
2022/10/05 14:02:04;;;;;;;4.23;2.83;;;17.70;99.90;;;;;;5025843;28;20046;-77
2022/10/05 14:04:47;;;;;;;7.22;3.13;;;17.70;99.90;;;;;;4998809;28;20037;-77
2022/10/05 14:07:33;;;;;;;5.57;3.35;;;17.70;99.90;;;;;;5003573;28;20060;-77